createdAt,value
2022-08-08T00:02:43.208Z,49.89
2022-08-08T00:06:03.070Z,50.23
2022-08-08T00:09:16.125Z,50.07
2022-08-08T00:12:24.872Z,50.96
2022-08-08T00:15:56.658Z,50.48
2022-08-08T00:19:03.969Z,50.94
2022-08-08T00:22:13.608Z,50.85
2022-08-08T00:25:22.945Z,50.60
2022-08-08T00:28:35.693Z,50.85
2022-08-08T00:32:20.178Z,50.94
2022-08-08T00:35:32.665Z,51.44
2022-08-08T00:38:54.634Z,51.69
2022-08-08T00:42:46.266Z,51.62
2022-08-08T00:46:04.898Z,52.03
2022-08-08T00:49:42.264Z,51.69
2022-08-08T00:53:01.369Z,52.04
2022-08-08T00:56:41.630Z,51.82
2022-08-08T01:00:10.668Z,52.04
2022-08-08T01:04:01.854Z,52.38
2022-08-08T01:07:56.590Z,52.88
2022-08-08T01:11:29.978Z,52.40
2022-08-08T01:15:17.194Z,52.69
2022-08-08T01:18:54.124Z,52.70
2022-08-08T01:22:32.473Z,52.91
2022-08-08T01:26:11.462Z,53.64
2022-08-08T01:29:59.770Z,53.23
2022-08-08T01:33:42.863Z,53.54
2022-08-08T01:37:58.337Z,54.22
2022-08-08T01:41:16.041Z,54.12
2022-08-08T01:44:32.137Z,53.96
2022-08-08T01:48:16.242Z,54.31
2022-08-08T01:52:04.504Z,54.59
2022-08-08T01:55:25.516Z,53.63
2022-08-08T01:58:47.015Z,54.24
2022-08-08T02:02:09.302Z,53.93
2022-08-08T02:05:33.573Z,54.04
2022-08-08T02:08:48.963Z,54.09
2022-08-08T02:12:00.448Z,55.14
2022-08-08T02:15:12.374Z,55.02
2022-08-08T02:18:20.620Z,54.63
2022-08-08T02:21:44.538Z,55.26
2022-08-08T02:24:56.996Z,54.62
2022-08-08T02:28:02.961Z,55.65
2022-08-08T02:31:43.508Z,55.14
2022-08-08T02:35:10.805Z,54.96
2022-08-08T02:38:38.374Z,54.84
2022-08-08T02:42:13.974Z,54.13
2022-08-08T02:45:56.979Z,54.69
2022-08-08T02:49:47.862Z,55.95
2022-08-08T02:53:11.054Z,56.49
2022-08-08T02:57:02.077Z,56.01
2022-08-08T03:00:31.142Z,56.47
2022-08-08T03:05:03.009Z,56.72
2022-08-08T03:08:17.313Z,56.98
2022-08-08T03:12:08.439Z,57.22
2022-08-08T03:16:02.086Z,56.88
2022-08-08T03:19:24.653Z,56.37
2022-08-08T03:22:38.270Z,56.32
2022-08-08T03:25:50.092Z,56.55
2022-08-08T03:28:59.973Z,56.71
2022-08-08T03:32:29.230Z,56.83
2022-08-08T03:35:39.105Z,58.95
2022-08-08T03:38:58.087Z,58.48
2022-08-08T03:42:28.446Z,59.20
2022-08-08T03:46:06.680Z,59.11
2022-08-08T03:49:30.908Z,59.02
2022-08-08T03:52:19.538Z,58.69
2022-08-08T03:55:56.536Z,58.84
2022-08-08T03:58:51.481Z,59.32
2022-08-08T04:02:32.866Z,60.35
2022-08-08T04:05:19.415Z,60.74
2022-08-08T04:08:33.614Z,61.01
2022-08-08T04:11:59.221Z,60.93
2022-08-08T04:15:06.156Z,60.65
2022-08-08T04:18:16.426Z,60.93
2022-08-08T04:21:22.948Z,60.86
2022-08-08T04:24:29.374Z,60.88
2022-08-08T04:28:01.916Z,61.04
2022-08-08T04:30:58.857Z,61.77
2022-08-08T04:34:07.285Z,60.65
2022-08-08T04:37:11.818Z,59.30
2022-08-08T04:40:14.809Z,57.61
2022-08-08T04:43:20.552Z,58.39
2022-08-08T04:46:26.288Z,58.42
2022-08-08T04:50:00.807Z,57.78
2022-08-08T04:52:58.592Z,57.08
2022-08-08T04:56:01.826Z,55.72
2022-08-08T04:59:05.708Z,54.69
2022-08-08T05:02:13.651Z,53.92
2022-08-08T05:05:20.453Z,53.58
2022-08-08T05:08:40.431Z,52.51
2022-08-08T05:11:47.654Z,50.77
2022-08-08T05:14:52.335Z,50.05
2022-08-08T05:17:57.245Z,49.34
2022-08-08T05:21:00.722Z,47.47
2022-08-08T05:24:10.461Z,47.58
2022-08-08T05:27:13.414Z,47.63
2022-08-08T05:30:16.181Z,47.43
2022-08-08T05:33:20.843Z,46.61
2022-08-08T05:36:28.186Z,45.88
2022-08-08T05:39:34.975Z,45.05
2022-08-08T05:42:43.169Z,45.02
2022-08-08T05:45:54.921Z,44.27
2022-08-08T05:49:00.344Z,44.69
2022-08-08T05:52:03.885Z,44.79
2022-08-08T05:55:10.639Z,44.45
2022-08-08T05:58:20.391Z,44.24
2022-08-08T06:01:55.659Z,43.95
2022-08-08T06:04:57.233Z,40.71
2022-08-08T06:08:03.074Z,40.00
2022-08-08T06:11:13.436Z,39.16
2022-08-08T06:14:20.415Z,37.09
2022-08-08T06:17:50.424Z,37.14
2022-08-08T06:20:56.366Z,36.52
2022-08-08T06:24:03.412Z,36.90
2022-08-08T06:27:11.760Z,36.02
2022-08-08T06:30:19.774Z,34.75
2022-08-08T06:33:36.862Z,32.70
2022-08-08T06:36:53.832Z,33.45
2022-08-08T06:40:00.653Z,32.69
2022-08-08T06:43:09.498Z,29.92
2022-08-08T06:46:13.679Z,30.41
2022-08-08T06:49:19.208Z,32.13
2022-08-08T06:52:44.108Z,32.99
2022-08-08T06:56:02.515Z,33.57
2022-08-08T06:59:12.156Z,33.58
2022-08-08T07:02:28.507Z,34.13
2022-08-08T07:05:40.344Z,32.82
2022-08-08T07:08:49.431Z,33.50
2022-08-08T07:11:59.019Z,34.45
2022-08-08T07:15:06.143Z,33.21
2022-08-08T07:18:40.837Z,32.67
2022-08-08T07:21:59.162Z,33.21
2022-08-08T07:25:07.090Z,31.89
2022-08-08T07:28:18.788Z,31.08
2022-08-08T07:31:23.111Z,30.98
2022-08-08T07:34:31.608Z,30.95
2022-08-08T07:38:04.519Z,30.48
2022-08-08T07:41:04.420Z,30.87
2022-08-08T07:44:33.494Z,28.99
2022-08-08T07:47:39.149Z,29.85
2022-08-08T07:50:44.056Z,30.48
2022-08-08T07:54:02.826Z,29.06
2022-08-08T07:57:21.175Z,27.94
2022-08-08T08:00:28.183Z,28.37
2022-08-08T08:03:43.439Z,28.61
2022-08-08T08:06:47.527Z,26.95
2022-08-08T08:09:51.770Z,26.08
2022-08-08T08:13:25.444Z,27.00
2022-08-08T08:16:50.304Z,24.73
2022-08-08T08:19:58.574Z,23.43
2022-08-08T08:23:01.210Z,24.54
2022-08-08T08:26:04.531Z,23.76
2022-08-08T08:29:08.760Z,22.86
2022-08-08T08:32:31.666Z,23.20
2022-08-08T08:36:18.587Z,23.26
2022-08-08T08:39:01.904Z,22.97
2022-08-08T08:42:12.004Z,22.95
2022-08-08T08:45:22.621Z,22.86
2022-08-08T08:48:26.739Z,22.37
2022-08-08T08:51:38.558Z,21.31
2022-08-08T08:54:58.071Z,21.30
2022-08-08T08:58:02.031Z,21.59
2022-08-08T09:01:09.653Z,21.27
2022-08-08T09:04:30.120Z,21.64
2022-08-08T09:07:39.438Z,20.85
2022-08-08T09:10:55.645Z,21.05
2022-08-08T09:14:02.254Z,21.31
2022-08-08T09:17:12.830Z,21.36
2022-08-08T09:22:00.317Z,20.17
2022-08-08T09:23:41.193Z,20.85
2022-08-08T09:26:51.627Z,19.80
2022-08-08T09:30:03.189Z,20.21
2022-08-08T09:33:13.193Z,21.65
2022-08-08T09:36:35.845Z,23.42
2022-08-08T09:39:44.000Z,23.48
2022-08-08T09:42:51.755Z,23.97
2022-08-08T09:46:02.842Z,22.99
2022-08-08T09:49:41.533Z,23.46
2022-08-08T09:52:56.317Z,21.60
2022-08-08T09:56:04.192Z,21.04
2022-08-08T09:59:40.377Z,20.65
2022-08-08T10:02:40.244Z,19.84
2022-08-08T10:05:46.794Z,19.31
2022-08-08T10:08:51.915Z,19.04
2022-08-08T10:12:25.815Z,20.00
2022-08-08T10:15:18.980Z,19.23
2022-08-08T10:18:26.132Z,19.54
2022-08-08T10:21:33.750Z,19.02
2022-08-08T10:24:48.054Z,20.32
2022-08-08T10:27:54.215Z,20.21
2022-08-08T10:31:46.525Z,19.40
2022-08-08T10:35:01.256Z,19.56
2022-08-08T10:38:10.867Z,19.48
2022-08-08T10:41:20.127Z,19.45
2022-08-08T10:44:30.993Z,19.18
2022-08-08T10:47:43.269Z,18.62
2022-08-08T10:50:47.293Z,18.78
2022-08-08T10:53:57.750Z,19.79
2022-08-08T10:57:04.338Z,20.17
2022-08-08T11:00:11.764Z,18.47
2022-08-08T11:03:17.957Z,18.92
2022-08-08T11:06:20.843Z,19.04
2022-08-08T11:09:24.917Z,17.96
2022-08-08T11:12:28.787Z,17.55
2022-08-08T11:15:32.093Z,18.99
2022-08-08T11:18:35.829Z,18.99
2022-08-08T11:21:45.226Z,17.88
2022-08-08T11:25:02.942Z,17.77
2022-08-08T11:28:19.970Z,19.43
2022-08-08T11:31:27.328Z,19.04
2022-08-08T11:34:52.557Z,18.88
2022-08-08T11:38:39.462Z,18.49
2022-08-08T11:41:23.853Z,18.08
2022-08-08T11:44:29.752Z,19.25
2022-08-08T11:47:39.607Z,19.05
2022-08-08T11:50:57.338Z,18.51
2022-08-08T11:54:02.267Z,18.59
2022-08-08T11:57:14.044Z,18.67
2022-08-08T12:00:20.212Z,18.17
2022-08-08T12:03:24.763Z,18.86
2022-08-08T12:06:33.617Z,19.43
2022-08-08T12:09:59.786Z,19.25
2022-08-08T12:13:05.609Z,17.86
2022-08-08T12:16:09.744Z,17.89
2022-08-08T12:19:13.046Z,18.50
2022-08-08T12:22:36.850Z,18.53
2022-08-08T12:25:38.662Z,19.06
2022-08-08T12:28:57.502Z,18.22
2022-08-08T12:32:04.610Z,19.23
2022-08-08T12:35:23.440Z,18.31
2022-08-08T12:38:31.206Z,18.52
2022-08-08T12:41:57.583Z,18.55
2022-08-08T12:45:54.858Z,18.66
2022-08-08T12:48:37.332Z,18.61
2022-08-08T12:51:50.061Z,19.66
2022-08-08T12:55:09.467Z,19.91
2022-08-08T12:58:19.474Z,19.04
2022-08-08T13:01:37.023Z,20.65
2022-08-08T13:04:51.727Z,20.38
2022-08-08T13:08:04.494Z,21.20
2022-08-08T13:11:18.904Z,21.55
2022-08-08T13:14:21.727Z,22.50
2022-08-08T13:17:54.440Z,22.83
2022-08-08T13:20:50.705Z,23.03
2022-08-08T13:23:56.055Z,22.36
2022-08-08T13:27:10.824Z,22.57
2022-08-08T13:30:20.852Z,21.55
2022-08-08T13:33:41.902Z,21.73
2022-08-08T13:36:46.510Z,20.23
2022-08-08T13:39:56.405Z,19.65
2022-08-08T13:42:59.536Z,19.74
2022-08-08T13:46:26.501Z,20.29
2022-08-08T13:50:39.877Z,19.82
2022-08-08T13:52:55.514Z,21.67
2022-08-08T13:56:01.381Z,22.22
2022-08-08T13:59:05.397Z,21.75
2022-08-08T14:02:20.701Z,22.54
2022-08-08T14:05:29.078Z,22.51
2022-08-08T14:08:45.926Z,23.84
2022-08-08T14:11:49.171Z,24.14
2022-08-08T14:14:52.216Z,23.45
2022-08-08T14:17:58.145Z,22.54
2022-08-08T14:21:22.400Z,23.19
2022-08-08T14:24:31.711Z,22.18
2022-08-08T14:27:37.630Z,22.08
2022-08-08T14:30:50.020Z,23.18
2022-08-08T14:33:54.698Z,23.56
2022-08-08T14:36:58.973Z,23.04
2022-08-08T14:40:05.623Z,23.52
2022-08-08T14:43:31.556Z,23.47
2022-08-08T14:46:33.019Z,23.24
2022-08-08T14:49:51.870Z,23.68
2022-08-08T14:53:04.264Z,23.22
2022-08-08T14:56:07.621Z,23.55
2022-08-08T14:59:22.682Z,24.06
2022-08-08T15:02:36.095Z,23.17
2022-08-08T15:05:59.012Z,24.89
2022-08-08T15:09:03.441Z,24.42
2022-08-08T15:12:07.283Z,23.54
2022-08-08T15:15:18.925Z,23.04
2022-08-08T15:18:36.566Z,23.86
2022-08-08T15:21:44.848Z,24.07
2022-08-08T15:24:50.031Z,23.50
2022-08-08T15:28:04.721Z,24.12
2022-08-08T15:31:55.652Z,24.05
2022-08-08T15:34:39.222Z,23.91
2022-08-08T15:37:42.451Z,25.21
2022-08-08T15:40:46.467Z,25.76
2022-08-08T15:44:00.743Z,26.60
2022-08-08T15:47:04.623Z,25.96
2022-08-08T15:50:19.489Z,26.26
2022-08-08T15:53:27.642Z,26.08
2022-08-08T15:56:37.303Z,25.83
2022-08-08T16:00:06.224Z,26.00
2022-08-08T16:03:04.298Z,25.68
2022-08-08T16:06:08.035Z,26.03
2022-08-08T16:13:09.724Z,25.85
2022-08-08T16:13:11.974Z,26.79
2022-08-08T16:16:13.368Z,26.13
2022-08-08T16:19:20.421Z,25.26
2022-08-08T16:22:38.957Z,25.39
2022-08-08T16:25:46.310Z,26.18
2022-08-08T16:28:57.073Z,25.82
2022-08-08T16:31:59.881Z,26.75
2022-08-08T16:35:04.533Z,26.65
2022-08-08T16:38:16.225Z,26.96
2022-08-08T16:41:29.416Z,26.28
2022-08-08T16:44:35.531Z,26.98
2022-08-08T16:47:41.597Z,27.10
2022-08-08T16:50:45.385Z,27.88
2022-08-08T16:55:06.467Z,27.47
2022-08-08T16:57:43.465Z,28.55
2022-08-08T17:00:37.002Z,28.08
2022-08-08T17:04:00.293Z,28.32
2022-08-08T17:07:02.747Z,28.98
2022-08-08T17:10:07.018Z,29.30
2022-08-08T17:13:09.648Z,29.42
2022-08-08T17:16:15.029Z,29.49
2022-08-08T17:19:18.352Z,29.83
2022-08-08T17:22:21.590Z,29.02
2022-08-08T17:25:53.529Z,29.44
2022-08-08T17:28:56.712Z,29.82
2022-08-08T17:32:00.913Z,30.34
2022-08-08T17:35:55.287Z,29.82
2022-08-08T17:38:28.582Z,29.59
2022-08-08T17:41:38.727Z,29.95
2022-08-08T17:44:44.486Z,30.11
2022-08-08T17:47:50.978Z,29.81
2022-08-08T17:50:56.269Z,30.19
2022-08-08T17:53:59.189Z,30.54
2022-08-08T17:57:08.112Z,30.65
2022-08-08T18:00:19.592Z,31.09
2022-08-08T18:03:25.812Z,31.11
2022-08-08T18:06:31.146Z,31.36
2022-08-08T18:09:38.644Z,31.31
2022-08-08T18:12:42.888Z,31.78
2022-08-08T18:15:48.744Z,31.43
2022-08-08T18:19:04.926Z,31.94
2022-08-08T18:22:07.695Z,31.90
2022-08-08T18:25:37.192Z,31.99
2022-08-08T18:28:54.179Z,32.11
2022-08-08T18:31:57.963Z,32.74
2022-08-08T18:35:02.022Z,32.22
2022-08-08T18:38:16.986Z,32.80
2022-08-08T18:41:19.929Z,33.23
2022-08-08T18:44:54.992Z,33.58
2022-08-08T18:47:58.932Z,33.61
2022-08-08T18:51:03.129Z,33.58
2022-08-08T18:54:13.804Z,33.93
2022-08-08T18:57:25.565Z,34.23
2022-08-08T19:00:29.548Z,34.66
2022-08-08T19:04:10.224Z,34.86
2022-08-08T19:06:56.896Z,34.86
2022-08-08T19:10:14.326Z,35.52
2022-08-08T19:13:21.726Z,35.89
2022-08-08T19:16:32.162Z,36.23
2022-08-08T19:19:36.277Z,35.90
2022-08-08T19:22:40.288Z,36.05
2022-08-08T19:26:19.697Z,36.83
2022-08-08T19:29:10.745Z,37.16
2022-08-08T19:32:19.507Z,37.10
2022-08-08T19:35:45.159Z,37.68
2022-08-08T19:38:51.345Z,37.83
2022-08-08T19:41:54.234Z,38.51
2022-08-08T19:45:05.321Z,38.74
2022-08-08T19:48:29.526Z,38.55
2022-08-08T19:51:34.290Z,38.81
2022-08-08T19:54:39.176Z,39.06
2022-08-08T19:57:43.509Z,39.32
2022-08-08T20:00:46.176Z,39.77
2022-08-08T20:04:01.737Z,39.94
2022-08-08T20:08:29.340Z,40.52
2022-08-08T20:10:32.793Z,40.43
2022-08-08T20:14:12.340Z,40.64
2022-08-08T20:16:59.586Z,40.77
2022-08-08T20:20:02.591Z,40.89
2022-08-08T20:23:12.530Z,40.94
2022-08-08T20:26:27.396Z,41.23
2022-08-08T20:29:45.833Z,41.51
2022-08-08T20:32:57.839Z,41.64
2022-08-08T20:36:08.447Z,42.09
2022-08-08T20:39:11.646Z,42.45
2022-08-08T20:42:16.478Z,42.20
2022-08-08T20:45:19.259Z,42.19
2022-08-08T20:48:42.033Z,42.70
2022-08-08T20:51:44.647Z,42.73
2022-08-08T20:54:50.450Z,42.73
2022-08-08T20:57:57.891Z,42.87
2022-08-08T21:01:00.796Z,42.78
2022-08-08T21:04:03.607Z,43.05
2022-08-08T21:07:08.282Z,43.34
2022-08-08T21:10:12.700Z,43.40
2022-08-08T21:13:17.284Z,43.68
2022-08-08T21:16:20.722Z,43.52
2022-08-08T21:19:34.198Z,43.94
2022-08-08T21:22:48.540Z,43.71
2022-08-08T21:25:55.081Z,44.10
2022-08-08T21:29:01.014Z,44.32
2022-08-08T21:32:14.366Z,44.85
2022-08-08T21:36:16.114Z,44.97
2022-08-08T21:38:50.803Z,44.89
2022-08-08T21:41:59.132Z,44.73
2022-08-08T21:45:44.545Z,44.97
2022-08-08T21:48:35.228Z,44.84
2022-08-08T21:54:23.064Z,44.89
2022-08-08T21:56:18.453Z,44.58
2022-08-08T21:58:37.364Z,44.76
2022-08-08T22:01:42.616Z,44.99
2022-08-08T22:04:45.579Z,45.13
2022-08-08T22:07:49.253Z,45.56
2022-08-08T22:10:54.029Z,45.34
2022-08-08T22:13:57.324Z,45.41
2022-08-08T22:17:02.748Z,45.45
2022-08-08T22:20:12.907Z,45.58
2022-08-08T22:23:21.753Z,45.91
2022-08-08T22:26:32.438Z,46.37
2022-08-08T22:29:59.523Z,46.20
2022-08-08T22:32:59.425Z,46.53
2022-08-08T22:36:04.611Z,46.80
2022-08-08T22:39:19.678Z,46.78
2022-08-08T22:42:27.208Z,46.50
2022-08-08T22:45:34.802Z,46.84
2022-08-08T22:48:38.909Z,46.80
2022-08-08T22:51:46.699Z,46.87
2022-08-08T22:54:58.852Z,47.07
2022-08-08T22:58:07.397Z,46.88
2022-08-08T23:01:30.237Z,47.08
2022-08-08T23:04:36.318Z,47.46
2022-08-08T23:07:51.068Z,47.32
2022-08-08T23:10:57.842Z,47.14
2022-08-08T23:14:08.422Z,47.33
2022-08-08T23:17:14.583Z,47.73
2022-08-08T23:20:21.280Z,47.98
2022-08-08T23:23:29.948Z,48.38
2022-08-08T23:26:34.403Z,48.82
2022-08-08T23:29:37.574Z,48.98
2022-08-08T23:32:41.719Z,49.15
2022-08-08T23:35:58.914Z,49.55
2022-08-08T23:39:11.123Z,49.55
2022-08-08T23:42:13.797Z,50.01
2022-08-08T23:45:19.329Z,50.18
2022-08-08T23:49:04.911Z,50.15
2022-08-08T23:52:08.805Z,50.20
2022-08-08T23:55:22.737Z,50.19
2022-08-08T23:58:37.427Z,50.50
